sensor_id;sensor_type;location;lat;lon;timestamp;pressure;altitude;pressure_sealevel;temperature;humidity
77975;BME280;67164;51.202;0.278;2024-01-30T00:00:29;101921.73;;;22.12;37.79
77975;BME280;67164;51.202;0.278;2024-01-30T00:02:55;101920.66;;;22.06;38.05
77975;BME280;67164;51.202;0.278;2024-01-30T00:05:20;101918.44;;;22.23;38.13
77975;BME280;67164;51.202;0.278;2024-01-30T00:07:46;101916.71;;;21.97;38.12
77975;BME280;67164;51.202;0.278;2024-01-30T00:10:11;101917.45;;;22.06;38.31
77975;BME280;67164;51.202;0.278;2024-01-30T00:12:37;101912.05;;;21.97;38.05
77975;BME280;67164;51.202;0.278;2024-01-30T00:15:04;101909.65;;;22.21;38.04
77975;BME280;67164;51.202;0.278;2024-01-30T00:17:29;101908.50;;;22.32;38.14
77975;BME280;67164;51.202;0.278;2024-01-30T00:19:54;101905.23;;;22.08;38.15
77975;BME280;67164;51.202;0.278;2024-01-30T00:22:20;101899.40;;;22.42;38.03
77975;BME280;67164;51.202;0.278;2024-01-30T00:24:46;101901.03;;;21.49;38.24
77975;BME280;67164;51.202;0.278;2024-01-30T00:27:12;101893.26;;;21.83;38.10
77975;BME280;67164;51.202;0.278;2024-01-30T00:29:37;101885.67;;;22.35;38.03
77975;BME280;67164;51.202;0.278;2024-01-30T00:32:04;101894.63;;;21.97;38.18
77975;BME280;67164;51.202;0.278;2024-01-30T00:34:30;101896.06;;;22.08;38.01
77975;BME280;67164;51.202;0.278;2024-01-30T00:36:55;101888.80;;;22.23;38.10
77975;BME280;67164;51.202;0.278;2024-01-30T00:39:20;101895.98;;;21.98;38.15
77975;BME280;67164;51.202;0.278;2024-01-30T00:41:46;101890.67;;;21.95;38.14
77975;BME280;67164;51.202;0.278;2024-01-30T00:44:12;101902.96;;;21.94;38.11
77975;BME280;67164;51.202;0.278;2024-01-30T00:46:37;101897.52;;;21.86;38.21
77975;BME280;67164;51.202;0.278;2024-01-30T00:49:03;101897.11;;;21.81;38.23
77975;BME280;67164;51.202;0.278;2024-01-30T00:51:30;101891.09;;;22.09;38.17
77975;BME280;67164;51.202;0.278;2024-01-30T00:53:55;101885.48;;;21.92;38.10
77975;BME280;67164;51.202;0.278;2024-01-30T00:56:20;101883.12;;;21.94;38.07
77975;BME280;67164;51.202;0.278;2024-01-30T00:58:46;101881.89;;;21.74;38.28
77975;BME280;67164;51.202;0.278;2024-01-30T01:01:12;101886.21;;;21.77;38.24
77975;BME280;67164;51.202;0.278;2024-01-30T01:03:38;101882.73;;;21.73;38.28
77975;BME280;67164;51.202;0.278;2024-01-30T01:06:04;101885.98;;;21.98;38.20
77975;BME280;67164;51.202;0.278;2024-01-30T01:08:30;101882.97;;;21.95;38.30
77975;BME280;67164;51.202;0.278;2024-01-30T01:10:55;101879.67;;;21.94;38.26
77975;BME280;67164;51.202;0.278;2024-01-30T01:13:21;101875.99;;;21.84;38.11
77975;BME280;67164;51.202;0.278;2024-01-30T01:15:46;101879.60;;;21.71;38.24
77975;BME280;67164;51.202;0.278;2024-01-30T01:18:12;101877.66;;;22.01;38.20
77975;BME280;67164;51.202;0.278;2024-01-30T01:20:38;101877.51;;;21.66;38.31
77975;BME280;67164;51.202;0.278;2024-01-30T01:23:04;101885.58;;;21.61;38.31
77975;BME280;67164;51.202;0.278;2024-01-30T01:25:30;101877.78;;;22.02;38.16
77975;BME280;67164;51.202;0.278;2024-01-30T01:27:55;101871.56;;;21.62;38.34
77975;BME280;67164;51.202;0.278;2024-01-30T01:30:21;101870.52;;;21.52;38.42
77975;BME280;67164;51.202;0.278;2024-01-30T01:32:47;101866.69;;;21.63;38.28
77975;BME280;67164;51.202;0.278;2024-01-30T01:35:12;101876.50;;;21.80;38.32
77975;BME280;67164;51.202;0.278;2024-01-30T01:37:38;101873.24;;;21.74;38.41
77975;BME280;67164;51.202;0.278;2024-01-30T01:40:05;101874.57;;;21.81;38.07
77975;BME280;67164;51.202;0.278;2024-01-30T01:42:30;101877.48;;;21.94;38.21
77975;BME280;67164;51.202;0.278;2024-01-30T01:44:56;101879.75;;;21.52;38.36
77975;BME280;67164;51.202;0.278;2024-01-30T01:47:21;101882.48;;;21.53;38.33
77975;BME280;67164;51.202;0.278;2024-01-30T01:49:47;101882.16;;;21.54;38.33
77975;BME280;67164;51.202;0.278;2024-01-30T01:52:13;101884.73;;;21.70;38.43
77975;BME280;67164;51.202;0.278;2024-01-30T01:54:38;101877.96;;;21.72;38.09
77975;BME280;67164;51.202;0.278;2024-01-30T01:57:05;101874.78;;;21.44;38.45
77975;BME280;67164;51.202;0.278;2024-01-30T01:59:30;101872.80;;;21.43;38.46
77975;BME280;67164;51.202;0.278;2024-01-30T02:01:56;101878.48;;;21.33;38.58
77975;BME280;67164;51.202;0.278;2024-01-30T02:04:22;101879.89;;;21.65;38.44
77975;BME280;67164;51.202;0.278;2024-01-30T02:06:47;101884.27;;;21.27;38.84
77975;BME280;67164;51.202;0.278;2024-01-30T02:09:13;101882.21;;;20.76;39.43
77975;BME280;67164;51.202;0.278;2024-01-30T02:11:39;101879.52;;;20.72;39.59
77975;BME280;67164;51.202;0.278;2024-01-30T02:14:05;101872.41;;;21.46;39.33
77975;BME280;67164;51.202;0.278;2024-01-30T02:16:31;101860.89;;;20.78;39.61
77975;BME280;67164;51.202;0.278;2024-01-30T02:18:56;101860.35;;;20.91;39.43
77975;BME280;67164;51.202;0.278;2024-01-30T02:21:23;101852.25;;;20.84;39.65
77975;BME280;67164;51.202;0.278;2024-01-30T02:23:48;101854.40;;;20.96;39.50
77975;BME280;67164;51.202;0.278;2024-01-30T02:26:14;101848.04;;;20.75;39.75
77975;BME280;67164;51.202;0.278;2024-01-30T02:28:40;101853.39;;;20.80;39.54
77975;BME280;67164;51.202;0.278;2024-01-30T02:31:06;101867.08;;;20.83;39.52
77975;BME280;67164;51.202;0.278;2024-01-30T02:33:31;101862.43;;;20.81;39.57
77975;BME280;67164;51.202;0.278;2024-01-30T02:35:57;101868.73;;;20.90;39.46
77975;BME280;67164;51.202;0.278;2024-01-30T02:38:23;101860.64;;;21.37;39.26
77975;BME280;67164;51.202;0.278;2024-01-30T02:40:49;101863.06;;;21.30;39.37
77975;BME280;67164;51.202;0.278;2024-01-30T02:43:15;101857.11;;;21.08;39.33
77975;BME280;67164;51.202;0.278;2024-01-30T02:45:40;101864.67;;;21.06;39.24
77975;BME280;67164;51.202;0.278;2024-01-30T02:48:07;101873.23;;;21.06;39.33
77975;BME280;67164;51.202;0.278;2024-01-30T02:50:32;101870.93;;;21.01;39.36
77975;BME280;67164;51.202;0.278;2024-01-30T02:52:58;101871.43;;;21.11;39.25
77975;BME280;67164;51.202;0.278;2024-01-30T02:55:23;101876.24;;;21.30;39.32
77975;BME280;67164;51.202;0.278;2024-01-30T02:57:49;101873.78;;;21.03;39.36
77975;BME280;67164;51.202;0.278;2024-01-30T03:00:20;101876.79;;;20.99;39.40
77975;BME280;67164;51.202;0.278;2024-01-30T03:02:41;101877.70;;;21.16;39.23
77975;BME280;67164;51.202;0.278;2024-01-30T03:05:08;101887.53;;;21.25;39.35
77975;BME280;67164;51.202;0.278;2024-01-30T03:07:33;101882.48;;;21.09;39.27
77975;BME280;67164;51.202;0.278;2024-01-30T03:09:58;101890.24;;;21.03;39.37
77975;BME280;67164;51.202;0.278;2024-01-30T03:12:24;101887.29;;;21.15;39.29
77975;BME280;67164;51.202;0.278;2024-01-30T03:14:50;101882.75;;;21.10;39.36
77975;BME280;67164;51.202;0.278;2024-01-30T03:17:16;101886.68;;;21.47;39.21
77975;BME280;67164;51.202;0.278;2024-01-30T03:19:41;101890.04;;;21.20;39.16
77975;BME280;67164;51.202;0.278;2024-01-30T03:22:07;101888.73;;;21.04;39.41
77975;BME280;67164;51.202;0.278;2024-01-30T03:24:33;101879.58;;;21.33;39.34
77975;BME280;67164;51.202;0.278;2024-01-30T03:26:59;101881.27;;;21.30;39.36
77975;BME280;67164;51.202;0.278;2024-01-30T03:29:24;101879.19;;;21.40;39.29
77975;BME280;67164;51.202;0.278;2024-01-30T03:31:50;101882.36;;;21.12;39.34
77975;BME280;67164;51.202;0.278;2024-01-30T03:34:16;101882.36;;;21.19;39.23
77975;BME280;67164;51.202;0.278;2024-01-30T03:36:42;101873.83;;;21.33;39.45
77975;BME280;67164;51.202;0.278;2024-01-30T03:39:08;101873.82;;;21.28;39.16
77975;BME280;67164;51.202;0.278;2024-01-30T03:41:33;101867.12;;;21.17;38.93
77975;BME280;67164;51.202;0.278;2024-01-30T03:43:59;101883.36;;;21.15;39.32
77975;BME280;67164;51.202;0.278;2024-01-30T03:46:25;101879.31;;;21.37;39.05
77975;BME280;67164;51.202;0.278;2024-01-30T03:48:51;101877.20;;;21.60;39.08
77975;BME280;67164;51.202;0.278;2024-01-30T03:51:17;101878.90;;;21.57;39.13
77975;BME280;67164;51.202;0.278;2024-01-30T03:53:43;101881.10;;;21.50;39.22
77975;BME280;67164;51.202;0.278;2024-01-30T03:56:08;101881.26;;;21.21;39.29
77975;BME280;67164;51.202;0.278;2024-01-30T03:58:34;101885.31;;;21.30;39.21
77975;BME280;67164;51.202;0.278;2024-01-30T04:01:00;101891.97;;;21.38;39.13
77975;BME280;67164;51.202;0.278;2024-01-30T04:03:26;101891.73;;;21.46;39.07
77975;BME280;67164;51.202;0.278;2024-01-30T04:05:52;101885.69;;;21.19;39.08
77975;BME280;67164;51.202;0.278;2024-01-30T04:08:17;101886.27;;;21.41;39.15
77975;BME280;67164;51.202;0.278;2024-01-30T04:10:43;101889.43;;;21.33;39.30
77975;BME280;67164;51.202;0.278;2024-01-30T04:13:09;101891.30;;;21.59;39.23
77975;BME280;67164;51.202;0.278;2024-01-30T04:15:35;101893.04;;;21.43;39.11
77975;BME280;67164;51.202;0.278;2024-01-30T04:18:00;101887.61;;;21.42;39.16
77975;BME280;67164;51.202;0.278;2024-01-30T04:20:26;101889.40;;;21.49;39.08
77975;BME280;67164;51.202;0.278;2024-01-30T04:22:52;101895.60;;;21.58;38.91
77975;BME280;67164;51.202;0.278;2024-01-30T04:25:18;101892.11;;;21.48;39.00
77975;BME280;67164;51.202;0.278;2024-01-30T04:27:43;101894.00;;;21.26;38.97
77975;BME280;67164;51.202;0.278;2024-01-30T04:30:10;101882.11;;;21.51;38.95
77975;BME280;67164;51.202;0.278;2024-01-30T04:32:35;101892.72;;;21.69;38.62
77975;BME280;67164;51.202;0.278;2024-01-30T04:35:01;101898.38;;;21.75;38.83
77975;BME280;67164;51.202;0.278;2024-01-30T04:37:27;101902.76;;;21.92;38.57
77975;BME280;67164;51.202;0.278;2024-01-30T04:39:52;101904.31;;;22.18;37.95
77975;BME280;67164;51.202;0.278;2024-01-30T04:42:18;101898.86;;;21.55;38.67
77975;BME280;67164;51.202;0.278;2024-01-30T04:44:44;101900.02;;;22.05;38.03
77975;BME280;67164;51.202;0.278;2024-01-30T04:47:10;101910.75;;;22.00;38.03
77975;BME280;67164;51.202;0.278;2024-01-30T04:49:36;101912.75;;;22.16;37.86
77975;BME280;67164;51.202;0.278;2024-01-30T04:52:02;101914.84;;;22.07;37.91
77975;BME280;67164;51.202;0.278;2024-01-30T04:54:27;101907.32;;;22.11;37.86
77975;BME280;67164;51.202;0.278;2024-01-30T04:56:53;101915.04;;;22.11;37.53
77975;BME280;67164;51.202;0.278;2024-01-30T04:59:19;101908.59;;;22.06;37.84
77975;BME280;67164;51.202;0.278;2024-01-30T05:01:45;101909.51;;;22.08;37.79
77975;BME280;67164;51.202;0.278;2024-01-30T05:04:10;101902.88;;;21.93;37.63
77975;BME280;67164;51.202;0.278;2024-01-30T05:06:36;101912.53;;;22.07;37.75
77975;BME280;67164;51.202;0.278;2024-01-30T05:09:02;101915.61;;;21.88;37.94
77975;BME280;67164;51.202;0.278;2024-01-30T05:11:28;101915.12;;;21.91;37.89
77975;BME280;67164;51.202;0.278;2024-01-30T05:13:54;101910.83;;;21.95;37.80
77975;BME280;67164;51.202;0.278;2024-01-30T05:16:19;101917.93;;;21.85;37.90
77975;BME280;67164;51.202;0.278;2024-01-30T05:18:45;101928.46;;;21.42;37.82
77975;BME280;67164;51.202;0.278;2024-01-30T05:21:11;101931.02;;;21.91;37.79
77975;BME280;67164;51.202;0.278;2024-01-30T05:23:37;101931.03;;;21.85;37.79
77975;BME280;67164;51.202;0.278;2024-01-30T05:26:03;101931.67;;;21.73;37.95
77975;BME280;67164;51.202;0.278;2024-01-30T05:28:30;101933.38;;;21.84;37.79
77975;BME280;67164;51.202;0.278;2024-01-30T05:30:54;101937.27;;;21.79;37.79
77975;BME280;67164;51.202;0.278;2024-01-30T05:33:20;101935.51;;;21.73;37.90
77975;BME280;67164;51.202;0.278;2024-01-30T05:35:46;101933.59;;;21.68;37.89
77975;BME280;67164;51.202;0.278;2024-01-30T05:38:12;101934.10;;;21.78;37.76
77975;BME280;67164;51.202;0.278;2024-01-30T05:40:37;101940.87;;;21.62;37.91
77975;BME280;67164;51.202;0.278;2024-01-30T05:43:03;101943.90;;;21.65;37.86
77975;BME280;67164;51.202;0.278;2024-01-30T05:45:30;101944.04;;;21.90;37.84
77975;BME280;67164;51.202;0.278;2024-01-30T05:47:55;101947.32;;;21.86;37.87
77975;BME280;67164;51.202;0.278;2024-01-30T05:50:20;101947.05;;;21.58;37.88
77975;BME280;67164;51.202;0.278;2024-01-30T05:52:46;101944.74;;;21.79;37.90
77975;BME280;67164;51.202;0.278;2024-01-30T05:55:12;101944.34;;;21.57;37.85
77975;BME280;67164;51.202;0.278;2024-01-30T05:57:38;101943.95;;;21.57;37.84
77975;BME280;67164;51.202;0.278;2024-01-30T06:00:05;101957.53;;;21.60;37.74
77975;BME280;67164;51.202;0.278;2024-01-30T06:02:30;101947.78;;;21.74;37.89
77975;BME280;67164;51.202;0.278;2024-01-30T06:04:55;101949.79;;;21.67;37.92
77975;BME280;67164;51.202;0.278;2024-01-30T06:07:21;101962.38;;;21.66;37.92
77975;BME280;67164;51.202;0.278;2024-01-30T06:09:47;101965.99;;;21.40;37.96
77975;BME280;67164;51.202;0.278;2024-01-30T06:12:13;101969.26;;;21.65;37.86
77975;BME280;67164;51.202;0.278;2024-01-30T06:14:38;101965.40;;;21.35;37.95
77975;BME280;67164;51.202;0.278;2024-01-30T06:17:04;101969.73;;;21.49;37.76
77975;BME280;67164;51.202;0.278;2024-01-30T06:19:31;101978.49;;;21.32;37.92
77975;BME280;67164;51.202;0.278;2024-01-30T06:21:56;101983.53;;;21.62;37.82
77975;BME280;67164;51.202;0.278;2024-01-30T06:24:22;101989.51;;;21.31;37.89
77975;BME280;67164;51.202;0.278;2024-01-30T06:26:47;101995.28;;;21.61;37.78
77975;BME280;67164;51.202;0.278;2024-01-30T06:29:13;101999.36;;;21.50;37.92
77975;BME280;67164;51.202;0.278;2024-01-30T06:31:40;102003.91;;;21.36;37.78
77975;BME280;67164;51.202;0.278;2024-01-30T06:34:05;101994.08;;;21.24;37.87
77975;BME280;67164;51.202;0.278;2024-01-30T06:36:31;101988.66;;;21.43;37.94
77975;BME280;67164;51.202;0.278;2024-01-30T06:38:56;101991.19;;;21.44;37.94
77975;BME280;67164;51.202;0.278;2024-01-30T06:41:22;102009.48;;;21.46;37.90
77975;BME280;67164;51.202;0.278;2024-01-30T06:43:50;102014.87;;;21.53;37.80
77975;BME280;67164;51.202;0.278;2024-01-30T06:46:14;102017.10;;;21.44;37.81
77975;BME280;67164;51.202;0.278;2024-01-30T06:48:40;102021.51;;;21.39;37.86
77975;BME280;67164;51.202;0.278;2024-01-30T06:51:05;102024.28;;;21.10;37.93
77975;BME280;67164;51.202;0.278;2024-01-30T06:53:31;102031.56;;;21.16;37.82
77975;BME280;67164;51.202;0.278;2024-01-30T06:55:57;102040.84;;;21.29;37.90
77975;BME280;67164;51.202;0.278;2024-01-30T06:58:23;102047.96;;;21.42;37.74
77975;BME280;67164;51.202;0.278;2024-01-30T07:00:49;102061.67;;;21.12;37.80
77975;BME280;67164;51.202;0.278;2024-01-30T07:03:14;102064.79;;;21.71;37.57
77975;BME280;67164;51.202;0.278;2024-01-30T07:05:40;102077.37;;;21.63;37.66
77975;BME280;67164;51.202;0.278;2024-01-30T07:08:06;102093.43;;;21.35;37.64
77975;BME280;67164;51.202;0.278;2024-01-30T07:10:32;102097.35;;;21.29;37.70
77975;BME280;67164;51.202;0.278;2024-01-30T07:12:57;102098.75;;;21.24;37.74
77975;BME280;67164;51.202;0.278;2024-01-30T07:15:23;102106.93;;;21.42;37.49
77975;BME280;67164;51.202;0.278;2024-01-30T07:17:49;102109.09;;;21.45;37.72
77975;BME280;67164;51.202;0.278;2024-01-30T07:20:15;102121.73;;;21.29;37.59
77975;BME280;67164;51.202;0.278;2024-01-30T07:22:41;102130.99;;;21.05;37.58
77975;BME280;67164;51.202;0.278;2024-01-30T07:25:07;102133.22;;;21.19;37.63
77975;BME280;67164;51.202;0.278;2024-01-30T07:27:32;102137.53;;;20.93;37.77
77975;BME280;67164;51.202;0.278;2024-01-30T07:29:58;102139.41;;;21.06;37.73
77975;BME280;67164;51.202;0.278;2024-01-30T07:32:24;102138.49;;;21.18;37.90
77975;BME280;67164;51.202;0.278;2024-01-30T07:34:50;102147.21;;;21.23;38.09
77975;BME280;67164;51.202;0.278;2024-01-30T07:37:15;102148.72;;;21.32;38.11
77975;BME280;67164;51.202;0.278;2024-01-30T07:39:41;102164.12;;;20.83;38.98
77975;BME280;67164;51.202;0.278;2024-01-30T07:42:07;102172.29;;;20.87;39.75
77975;BME280;67164;51.202;0.278;2024-01-30T07:44:33;102183.16;;;20.76;39.51
77975;BME280;67164;51.202;0.278;2024-01-30T07:46:59;102189.78;;;20.36;40.39
77975;BME280;67164;51.202;0.278;2024-01-30T07:49:24;102194.35;;;20.77;40.43
77975;BME280;67164;51.202;0.278;2024-01-30T07:51:50;102191.75;;;20.53;40.65
77975;BME280;67164;51.202;0.278;2024-01-30T07:54:16;102192.37;;;20.37;41.25
77975;BME280;67164;51.202;0.278;2024-01-30T07:56:42;102204.84;;;20.81;41.43
77975;BME280;67164;51.202;0.278;2024-01-30T07:59:10;102206.76;;;20.65;41.69
77975;BME280;67164;51.202;0.278;2024-01-30T08:01:34;102211.76;;;20.69;41.28
77975;BME280;67164;51.202;0.278;2024-01-30T08:03:59;102210.62;;;20.95;40.70
77975;BME280;67164;51.202;0.278;2024-01-30T08:06:25;102210.80;;;21.31;40.44
77975;BME280;67164;51.202;0.278;2024-01-30T08:08:51;102216.38;;;20.80;40.88
77975;BME280;67164;51.202;0.278;2024-01-30T08:11:17;102218.87;;;20.90;40.83
77975;BME280;67164;51.202;0.278;2024-01-30T08:13:42;102222.89;;;20.98;40.69
77975;BME280;67164;51.202;0.278;2024-01-30T08:16:08;102225.57;;;20.92;40.93
77975;BME280;67164;51.202;0.278;2024-01-30T08:18:34;102234.05;;;20.58;40.91
77975;BME280;67164;51.202;0.278;2024-01-30T08:21:00;102244.11;;;20.79;40.93
77975;BME280;67164;51.202;0.278;2024-01-30T08:23:25;102249.24;;;20.79;41.16
77975;BME280;67164;51.202;0.278;2024-01-30T08:25:51;102253.29;;;20.80;41.47
77975;BME280;67164;51.202;0.278;2024-01-30T08:28:17;102260.91;;;20.86;40.59
77975;BME280;67164;51.202;0.278;2024-01-30T08:30:43;102263.61;;;21.00;40.69
77975;BME280;67164;51.202;0.278;2024-01-30T08:33:09;102258.92;;;20.99;40.72
77975;BME280;67164;51.202;0.278;2024-01-30T08:35:34;102261.85;;;20.68;40.73
77975;BME280;67164;51.202;0.278;2024-01-30T08:38:00;102260.26;;;20.86;40.50
77975;BME280;67164;51.202;0.278;2024-01-30T08:40:26;102265.64;;;21.04;40.59
77975;BME280;67164;51.202;0.278;2024-01-30T08:42:52;102270.18;;;20.85;40.51
77975;BME280;67164;51.202;0.278;2024-01-30T08:45:18;102272.01;;;21.27;40.35
77975;BME280;67164;51.202;0.278;2024-01-30T08:47:43;102278.95;;;20.80;40.66
77975;BME280;67164;51.202;0.278;2024-01-30T08:50:09;102278.78;;;21.03;40.41
77975;BME280;67164;51.202;0.278;2024-01-30T08:52:35;102278.82;;;20.86;40.56
77975;BME280;67164;51.202;0.278;2024-01-30T08:55:01;102288.19;;;21.28;40.31
77975;BME280;67164;51.202;0.278;2024-01-30T08:57:27;102290.84;;;20.95;40.42
77975;BME280;67164;51.202;0.278;2024-01-30T08:59:52;102291.98;;;21.13;40.78
77975;BME280;67164;51.202;0.278;2024-01-30T09:02:18;102294.71;;;21.01;41.25
77975;BME280;67164;51.202;0.278;2024-01-30T09:04:44;102300.59;;;20.99;41.54
77975;BME280;67164;51.202;0.278;2024-01-30T09:07:10;102306.34;;;20.96;41.65
77975;BME280;67164;51.202;0.278;2024-01-30T09:09:37;102311.60;;;20.94;41.14
77975;BME280;67164;51.202;0.278;2024-01-30T09:12:02;102311.72;;;21.19;40.60
77975;BME280;67164;51.202;0.278;2024-01-30T09:14:27;102321.23;;;21.18;40.87
77975;BME280;67164;51.202;0.278;2024-01-30T09:16:53;102326.31;;;20.99;40.83
77975;BME280;67164;51.202;0.278;2024-01-30T09:19:19;102327.71;;;21.17;40.72
77975;BME280;67164;51.202;0.278;2024-01-30T09:21:44;102334.12;;;21.25;40.59
77975;BME280;67164;51.202;0.278;2024-01-30T09:24:10;102335.28;;;20.96;40.61
77975;BME280;67164;51.202;0.278;2024-01-30T09:26:36;102338.11;;;20.86;40.31
77975;BME280;67164;51.202;0.278;2024-01-30T09:29:02;102343.23;;;21.09;40.32
77975;BME280;67164;51.202;0.278;2024-01-30T09:31:28;102343.49;;;21.10;40.31
77975;BME280;67164;51.202;0.278;2024-01-30T09:33:53;102348.03;;;21.09;40.27
77975;BME280;67164;51.202;0.278;2024-01-30T09:36:20;102346.54;;;21.32;40.13
77975;BME280;67164;51.202;0.278;2024-01-30T09:38:45;102351.99;;;21.14;40.11
77975;BME280;67164;51.202;0.278;2024-01-30T09:41:11;102358.80;;;21.03;40.28
77975;BME280;67164;51.202;0.278;2024-01-30T09:43:38;102357.61;;;21.01;40.24
77975;BME280;67164;51.202;0.278;2024-01-30T09:46:03;102359.96;;;21.17;39.84
77975;BME280;67164;51.202;0.278;2024-01-30T09:48:29;102360.01;;;21.20;40.03
77975;BME280;67164;51.202;0.278;2024-01-30T09:50:54;102364.99;;;21.82;39.72
77975;BME280;67164;51.202;0.278;2024-01-30T09:53:20;102369.51;;;21.28;39.56
77975;BME280;67164;51.202;0.278;2024-01-30T09:55:46;102370.53;;;21.39;39.48
77975;BME280;67164;51.202;0.278;2024-01-30T09:58:12;102378.08;;;21.30;39.65
77975;BME280;67164;51.202;0.278;2024-01-30T10:00:37;102386.68;;;21.21;39.76
77975;BME280;67164;51.202;0.278;2024-01-30T10:03:04;102397.74;;;21.15;39.49
77975;BME280;67164;51.202;0.278;2024-01-30T10:05:31;102402.15;;;21.28;39.78
77975;BME280;67164;51.202;0.278;2024-01-30T10:07:56;102409.21;;;21.34;39.75
77975;BME280;67164;51.202;0.278;2024-01-30T10:10:22;102407.98;;;21.45;39.66
77975;BME280;67164;51.202;0.278;2024-01-30T10:12:46;102412.50;;;21.34;39.79
77975;BME280;67164;51.202;0.278;2024-01-30T10:15:13;102418.00;;;21.33;39.82
77975;BME280;67164;51.202;0.278;2024-01-30T10:17:38;102425.97;;;21.35;39.81
77975;BME280;67164;51.202;0.278;2024-01-30T10:20:05;102424.61;;;21.35;39.82
77975;BME280;67164;51.202;0.278;2024-01-30T10:22:30;102424.36;;;21.45;39.70
77975;BME280;67164;51.202;0.278;2024-01-30T10:24:55;102425.21;;;21.48;39.69
77975;BME280;67164;51.202;0.278;2024-01-30T10:27:25;102430.04;;;21.58;39.61
77975;BME280;67164;51.202;0.278;2024-01-30T10:29:49;102433.30;;;21.67;39.44
77975;BME280;67164;51.202;0.278;2024-01-30T10:32:13;102437.00;;;21.50;39.68
77975;BME280;67164;51.202;0.278;2024-01-30T10:34:38;102440.65;;;21.51;39.76
77975;BME280;67164;51.202;0.278;2024-01-30T10:37:08;102435.12;;;21.13;40.10
77975;BME280;67164;51.202;0.278;2024-01-30T10:39:32;102437.03;;;21.63;40.14
77975;BME280;67164;51.202;0.278;2024-01-30T10:41:56;102451.58;;;21.62;40.03
77975;BME280;67164;51.202;0.278;2024-01-30T10:44:22;102461.90;;;21.53;40.13
77975;BME280;67164;51.202;0.278;2024-01-30T10:46:53;102462.45;;;21.47;40.35
77975;BME280;67164;51.202;0.278;2024-01-30T10:49:14;102467.02;;;21.61;40.10
77975;BME280;67164;51.202;0.278;2024-01-30T10:51:39;102471.73;;;21.68;39.99
77975;BME280;67164;51.202;0.278;2024-01-30T10:54:05;102473.89;;;21.37;40.07
77975;BME280;67164;51.202;0.278;2024-01-30T10:56:32;102480.22;;;21.68;39.92
77975;BME280;67164;51.202;0.278;2024-01-30T10:58:57;102489.05;;;21.52;40.22
77975;BME280;67164;51.202;0.278;2024-01-30T11:01:23;102495.03;;;21.49;40.18
77975;BME280;67164;51.202;0.278;2024-01-30T11:03:48;102498.01;;;21.59;39.90
77975;BME280;67164;51.202;0.278;2024-01-30T11:06:14;102499.23;;;21.51;39.81
77975;BME280;67164;51.202;0.278;2024-01-30T11:08:40;102498.76;;;21.42;39.94
77975;BME280;67164;51.202;0.278;2024-01-30T11:11:09;102497.85;;;21.65;39.84
77975;BME280;67164;51.202;0.278;2024-01-30T11:13:31;102504.23;;;21.57;39.64
77975;BME280;67164;51.202;0.278;2024-01-30T11:16:00;102506.13;;;21.57;39.60
77975;BME280;67164;51.202;0.278;2024-01-30T11:18:23;102508.10;;;21.81;39.46
77975;BME280;67164;51.202;0.278;2024-01-30T11:20:49;102511.58;;;21.67;39.75
77975;BME280;67164;51.202;0.278;2024-01-30T11:23:14;102511.24;;;21.58;39.85
77975;BME280;67164;51.202;0.278;2024-01-30T11:25:43;102513.34;;;21.87;39.55
77975;BME280;67164;51.202;0.278;2024-01-30T11:28:13;102509.95;;;21.82;39.56
77975;BME280;67164;51.202;0.278;2024-01-30T11:30:32;102510.61;;;21.30;39.69
77975;BME280;67164;51.202;0.278;2024-01-30T11:33:00;102513.32;;;21.42;39.52
77975;BME280;67164;51.202;0.278;2024-01-30T11:35:24;102513.61;;;21.68;39.73
77975;BME280;67164;51.202;0.278;2024-01-30T11:37:49;102514.68;;;21.69;39.72
77975;BME280;67164;51.202;0.278;2024-01-30T11:40:16;102517.52;;;21.53;39.53
77975;BME280;67164;51.202;0.278;2024-01-30T11:42:41;102519.76;;;21.96;39.33
77975;BME280;67164;51.202;0.278;2024-01-30T11:45:07;102522.39;;;21.65;39.40
77975;BME280;67164;51.202;0.278;2024-01-30T11:47:35;102519.96;;;21.51;39.44
77975;BME280;67164;51.202;0.278;2024-01-30T11:49:58;102522.64;;;21.62;39.49
77975;BME280;67164;51.202;0.278;2024-01-30T11:52:24;102522.22;;;21.95;39.34
77975;BME280;67164;51.202;0.278;2024-01-30T11:54:55;102528.14;;;21.80;39.48
77975;BME280;67164;51.202;0.278;2024-01-30T11:57:15;102534.13;;;21.88;39.41
77975;BME280;67164;51.202;0.278;2024-01-30T11:59:41;102534.42;;;21.51;39.29
77975;BME280;67164;51.202;0.278;2024-01-30T12:02:07;102539.85;;;21.85;39.43
77975;BME280;67164;51.202;0.278;2024-01-30T12:04:33;102538.52;;;22.02;39.22
77975;BME280;67164;51.202;0.278;2024-01-30T12:06:59;102546.52;;;21.81;39.11
77975;BME280;67164;51.202;0.278;2024-01-30T12:09:24;102550.85;;;22.13;38.94
77975;BME280;67164;51.202;0.278;2024-01-30T12:11:50;102552.97;;;22.09;39.12
77975;BME280;67164;51.202;0.278;2024-01-30T12:14:16;102560.46;;;21.91;38.99
77975;BME280;67164;51.202;0.278;2024-01-30T12:16:42;102554.07;;;21.84;38.94
77975;BME280;67164;51.202;0.278;2024-01-30T12:19:08;102560.67;;;21.69;39.11
77975;BME280;67164;51.202;0.278;2024-01-30T12:21:34;102566.61;;;21.81;38.80
77975;BME280;67164;51.202;0.278;2024-01-30T12:23:59;102559.25;;;21.98;39.12
77975;BME280;67164;51.202;0.278;2024-01-30T12:26:25;102559.58;;;22.16;39.30
77975;BME280;67164;51.202;0.278;2024-01-30T12:28:53;102560.94;;;21.58;39.59
77975;BME280;67164;51.202;0.278;2024-01-30T12:31:16;102564.12;;;22.14;39.41
77975;BME280;67164;51.202;0.278;2024-01-30T12:33:42;102560.49;;;22.06;39.42
77975;BME280;67164;51.202;0.278;2024-01-30T12:36:08;102562.89;;;22.14;39.22
77975;BME280;67164;51.202;0.278;2024-01-30T12:38:34;102566.01;;;21.63;39.22
77975;BME280;67164;51.202;0.278;2024-01-30T12:40:59;102568.51;;;21.55;39.27